Time;durP1;ratioP1;P1;durP2;ratioP2;P2;SDS_P1;SDS_P2;PMS_P1;PMS_P2;Temp;Humidity;BMP_temperature;BMP_pressure;BME280_temperature;BME280_humidity;BME280_pressure;Samples;Min_cycle;Max_cycle;Signal;HPM_P1;HPM_P2
2021/03/13 00:00:09;;;;;;;30.92;8.65;;;8.70;99.90;;;8.82;82.49;99726.47;4937099;29;20058;-74
2021/03/13 00:02:41;;;;;;;28.55;8.55;;;8.70;99.90;;;8.90;82.10;99716.69;4936859;29;20043;-64
2021/03/13 00:05:11;;;;;;;31.60;9.45;;;8.70;99.90;;;8.72;81.99;99688.84;4937452;29;20490;-74
2021/03/13 00:07:39;;;;;;;29.27;7.40;;;8.70;99.90;;;8.81;81.77;99708.91;4937191;29;20047;-75
2021/03/13 00:10:08;;;;;;;29.55;7.35;;;8.70;99.90;;;8.82;81.84;99679.03;4919954;29;20540;-67
2021/03/13 00:12:36;;;;;;;27.70;8.35;;;8.70;99.90;;;8.74;81.89;99683.53;4936773;29;20051;-70
2021/03/13 00:15:06;;;;;;;29.58;8.88;;;8.60;99.90;;;8.84;82.26;99690.41;4936611;29;20083;-71
2021/03/13 00:17:33;;;;;;;29.20;7.13;;;8.70;99.90;;;8.78;82.95;99695.78;4936781;29;20560;-72
2021/03/13 00:20:01;;;;;;;28.60;7.68;;;8.60;99.90;;;8.66;83.12;99662.59;4936850;29;20044;-73
2021/03/13 00:22:28;;;;;;;31.08;7.70;;;8.60;99.90;;;8.69;83.74;99665.16;4936740;29;20079;-71
2021/03/13 00:24:55;;;;;;;21.50;7.45;;;8.60;99.90;;;8.70;84.70;99668.66;4936520;29;20561;-73
2021/03/13 00:27:23;;;;;;;29.73;7.60;;;8.50;99.90;;;8.76;84.54;99668.56;4936775;29;20044;-73
2021/03/13 00:30:00;;;;;;;25.48;7.18;;;8.60;99.90;;;8.69;85.16;99661.66;4936726;29;20075;-73
2021/03/13 00:32:28;;;;;;;26.15;7.95;;;8.60;99.90;;;8.54;85.26;99664.53;4936390;29;20517;-72
2021/03/13 00:34:56;;;;;;;20.85;6.90;;;8.40;99.90;;;8.57;85.74;99651.31;4936502;29;20047;-72
2021/03/13 00:37:23;;;;;;;20.42;7.57;;;8.40;99.90;;;8.53;85.69;99657.53;4919219;29;20048;-73
2021/03/13 00:39:50;;;;;;;30.35;8.20;;;8.40;99.90;;;8.46;86.13;99658.53;4936354;29;20147;-72
2021/03/13 00:42:18;;;;;;;25.67;8.43;;;8.30;99.90;;;8.44;86.22;99626.06;4936137;29;20475;-73
2021/03/13 00:44:46;;;;;;;26.92;9.13;;;8.30;99.90;;;8.46;86.85;99624.28;4936184;29;20051;-72
2021/03/13 00:47:14;;;;;;;24.52;8.07;;;8.30;99.90;;;8.40;87.27;99640.19;4936257;29;20052;-73
2021/03/13 00:49:41;;;;;;;26.92;8.95;;;8.30;99.90;;;8.36;87.52;99602.47;4935710;29;20480;-73
2021/03/13 00:52:09;;;;;;;25.30;8.43;;;8.20;99.90;;;8.32;87.36;99611.31;4936153;29;20047;-73
2021/03/13 00:54:36;;;;;;;29.33;10.00;;;8.20;99.90;;;8.33;87.83;99606.91;4936041;29;20051;-72
2021/03/13 00:57:05;;;;;;;22.83;8.25;;;8.20;99.90;;;8.24;87.84;99589.47;4918968;29;20490;-72
2021/03/13 00:59:32;;;;;;;32.00;8.70;;;8.10;99.90;;;8.32;87.66;99581.47;4919058;29;20146;-72
2021/03/13 01:02:00;;;;;;;23.73;7.82;;;8.20;99.90;;;8.39;87.80;99576.06;4918940;29;20051;-72
2021/03/13 01:04:28;;;;;;;27.23;8.88;;;8.20;99.90;;;8.36;87.15;99552.44;4919009;29;20043;-72
2021/03/13 01:06:56;;;;;;;18.17;7.00;;;8.20;99.90;;;8.33;87.93;99562.13;4919279;29;20063;-72
2021/03/13 01:09:24;;;;;;;20.60;8.02;;;8.20;99.90;;;8.37;87.67;99566.44;4935698;29;20098;-73
2021/03/13 01:11:52;;;;;;;16.90;8.40;;;8.20;99.90;;;8.22;88.29;99530.69;4918918;29;20059;-70
2021/03/13 01:14:19;;;;;;;22.52;8.05;;;8.10;99.90;;;8.30;88.66;99530.59;4935937;29;20084;-72
2021/03/13 01:16:49;;;;;;;24.08;7.25;;;8.10;99.90;;;8.26;88.47;99542.94;4918908;29;20058;-72
2021/03/13 01:19:17;;;;;;;16.65;6.32;;;8.10;99.90;;;8.26;88.19;99513.09;4918598;29;20130;-71
2021/03/13 01:21:49;;;;;;;17.98;5.78;;;8.10;99.90;;;8.15;88.28;99494.78;4918555;29;20572;-71
2021/03/13 01:24:16;;;;;;;16.83;6.63;;;8.00;99.90;;;8.09;88.75;99485.22;4935467;29;20059;-72
2021/03/13 01:26:44;;;;;;;17.27;6.60;;;8.00;99.90;;;8.16;88.91;99489.53;4918753;29;20408;-72
2021/03/13 01:29:13;;;;;;;21.38;7.03;;;8.00;99.90;;;8.07;89.02;99457.22;4918628;29;20055;-72
2021/03/13 01:31:48;;;;;;;20.55;6.63;;;8.00;99.90;;;8.14;89.34;99503.59;4935673;29;20130;-72
2021/03/13 01:34:20;;;;;;;19.58;7.18;;;8.00;99.90;;;8.08;88.96;99461.56;4918317;29;20043;-72
2021/03/13 01:36:55;;;;;;;17.15;6.88;;;8.00;99.90;;;8.15;89.30;99447.38;4918377;29;20054;-72
2021/03/13 01:39:23;;;;;;;25.30;7.00;;;8.00;99.90;;;8.16;89.64;99441.25;4935516;29;20126;-72
2021/03/13 01:41:50;;;;;;;22.98;7.70;;;8.00;99.90;;;8.15;88.68;99452.66;4918501;29;20425;-72
2021/03/13 01:44:18;;;;;;;21.33;7.13;;;8.00;99.90;;;8.13;89.00;99449.19;4918376;29;20052;-72
2021/03/13 01:46:47;;;;;;;18.23;7.07;;;8.00;99.90;;;8.18;89.43;99411.38;4918340;29;20052;-72
2021/03/13 01:49:23;;;;;;;20.45;8.05;;;8.10;99.90;;;8.14;89.38;99417.59;4918431;29;20051;-72
2021/03/13 01:51:51;;;;;;;21.58;7.75;;;8.00;99.90;;;8.12;89.17;99410.59;4918475;29;20051;-72
2021/03/13 01:54:19;;;;;;;16.38;8.00;;;8.00;99.90;;;8.19;89.72;99391.13;4918359;29;20075;-71
2021/03/13 01:56:49;;;;;;;21.33;8.52;;;8.00;99.90;;;8.17;89.46;99370.09;4918283;29;20102;-72
2021/03/13 01:59:20;;;;;;;20.00;9.27;;;8.00;99.90;;;8.17;89.67;99380.63;4918405;29;20052;-71
2021/03/13 02:01:51;;;;;;;17.05;8.45;;;8.10;99.90;;;8.12;89.55;99356.19;4921322;29;20055;-72
2021/03/13 02:04:22;;;;;;;16.50;8.68;;;8.00;99.90;;;7.51;89.64;99234.50;4922329;29;20048;-71
2021/03/13 02:07:02;;;;;;;17.42;8.68;;;8.00;99.90;;;7.61;89.45;99254.50;4939255;29;20067;-71
2021/03/13 02:09:43;;;;;;;19.20;8.85;;;8.00;99.90;;;8.13;89.71;99307.88;4922044;29;20048;-71
2021/03/13 02:12:24;;;;;;;25.65;9.73;;;8.00;99.90;;;8.13;89.94;99371.06;4922087;29;20482;-71
2021/03/13 02:15:01;;;;;;;19.27;9.30;;;8.00;99.90;;;8.04;90.21;99321.22;4922060;29;20055;-71
2021/03/13 02:17:41;;;;;;;18.17;8.95;;;8.00;99.90;;;8.02;90.40;99312.47;4921884;29;20056;-69
2021/03/13 02:20:53;;;;;;;19.13;9.13;;;7.90;99.90;;;7.93;90.97;99286.34;4938872;29;20062;-69
2021/03/13 02:23:24;;;;;;;21.98;9.73;;;7.90;99.90;;;7.99;91.01;99294.09;4891404;29;20498;-70
2021/03/13 02:26:27;;;;;;;19.65;10.00;;;7.90;99.90;;;8.01;91.18;99273.03;4938812;29;20062;-70
2021/03/13 02:29:38;;;;;;;19.45;9.57;;;7.90;99.90;;;7.83;91.29;99252.31;4935791;29;20095;-69
2021/03/13 02:32:20;;;;;;;22.83;8.63;;;7.90;99.90;;;7.95;91.17;99224.00;4921643;29;20573;-69
2021/03/13 02:34:51;;;;;;;19.50;9.55;;;7.90;99.90;;;7.94;90.95;99264.38;4921533;29;20051;-70
2021/03/13 02:37:24;;;;;;;19.00;8.93;;;7.80;99.90;;;7.99;90.83;99224.81;4939281;29;20075;-69
2021/03/13 02:39:56;;;;;;;15.63;8.00;;;7.90;99.90;;;8.04;90.54;99170.28;4921769;29;20069;-69
2021/03/13 02:42:26;;;;;;;12.77;8.13;;;7.90;99.90;;;8.00;90.81;99208.97;4921456;29;20052;-70
2021/03/13 02:44:55;;;;;;;21.05;9.98;;;7.90;99.90;;;8.03;90.33;99158.88;4921553;29;20048;-70
2021/03/13 02:47:28;;;;;;;16.50;8.75;;;8.00;99.90;;;8.03;90.95;99143.09;4921212;29;20068;-70
2021/03/13 02:50:02;;;;;;;17.98;9.52;;;8.00;99.90;;;8.06;90.62;99163.22;4921850;29;20056;-70
2021/03/13 02:52:40;;;;;;;17.00;8.70;;;7.90;99.90;;;8.13;91.05;99149.88;4921348;29;20501;-70
2021/03/13 02:55:14;;;;;;;18.63;8.10;;;8.00;99.90;;;8.10;90.29;99133.28;4921261;29;20498;-70
2021/03/13 02:57:46;;;;;;;19.05;7.95;;;8.00;99.90;;;8.11;90.87;99103.41;4921157;29;20486;-70
2021/03/13 03:00:18;;;;;;;;;;;8.00;99.90;;;8.05;90.89;99108.84;4921732;29;20490;-71
2021/03/13 03:02:50;;;;;;;18.13;8.87;;;8.00;99.90;;;8.08;90.67;99085.94;4921200;29;19978;-71
2021/03/13 03:05:19;;;;;;;28.30;8.70;;;8.00;99.90;;;8.04;90.97;99071.13;4938019;29;20565;-71
2021/03/13 03:07:49;;;;;;;20.98;8.70;;;8.00;99.90;;;8.11;91.16;99075.34;4938006;29;20095;-71
2021/03/13 03:10:19;;;;;;;21.40;8.77;;;8.00;99.90;;;8.01;91.60;99034.31;4936711;29;20044;-71
2021/03/13 03:12:48;;;;;;;17.27;7.68;;;8.00;99.90;;;8.16;91.35;99076.09;4920658;29;20055;-71
2021/03/13 03:15:24;;;;;;;15.73;7.75;;;8.10;99.90;;;8.18;91.74;99026.03;4920776;29;20079;-70
2021/03/13 03:17:53;;;;;;;14.75;7.65;;;8.00;99.90;;;8.19;91.63;99057.59;4920960;29;20549;-70
2021/03/13 03:20:22;;;;;;;16.08;8.18;;;8.10;99.90;;;8.23;91.33;98996.97;4920977;29;20146;-70
2021/03/13 03:22:50;;;;;;;14.38;7.22;;;8.10;99.90;;;8.05;90.88;99019.34;4920629;29;20059;-70
2021/03/13 03:25:23;;;;;;;15.48;7.68;;;8.10;99.90;;;8.25;90.86;98979.38;4920541;29;20078;-71
2021/03/13 03:27:51;;;;;;;14.27;6.97;;;8.10;99.90;;;8.26;90.51;99015.34;4936567;29;20052;-70
2021/03/13 03:30:30;;;;;;;18.55;7.90;;;8.10;99.90;;;8.20;90.56;98969.81;4920680;29;20055;-70
2021/03/13 03:33:00;;;;;;;14.55;7.38;;;8.10;99.90;;;8.30;90.61;98973.09;4920521;29;20054;-70
2021/03/13 03:35:31;;;;;;;17.35;7.38;;;8.20;99.90;;;8.32;90.78;98962.53;4920730;29;20052;-70
2021/03/13 03:38:00;;;;;;;13.82;7.18;;;8.20;99.90;;;8.36;91.00;98953.63;4920517;29;20052;-71
2021/03/13 03:40:31;;;;;;;15.75;7.30;;;8.20;99.90;;;8.35;90.75;98949.25;4920564;29;20056;-71
2021/03/13 03:43:06;;;;;;;11.80;6.65;;;8.20;99.90;;;8.37;90.72;98961.50;4920421;29;20104;-71
2021/03/13 03:45:35;;;;;;;20.00;7.35;;;8.20;99.90;;;8.34;91.04;98944.91;4920520;29;20090;-71
2021/03/13 03:48:09;;;;;;;13.75;7.90;;;8.30;99.90;;;8.36;91.10;98951.88;4920383;29;20142;-71
2021/03/13 03:50:40;;;;;;;15.48;6.90;;;8.30;99.90;;;8.37;91.58;98921.09;4920411;29;20414;-70
2021/03/13 03:53:21;;;;;;;14.65;7.15;;;8.20;99.90;;;8.32;91.39;98937.06;4920294;29;20091;-71
2021/03/13 03:55:52;;;;;;;15.25;6.70;;;8.20;99.90;;;8.26;92.06;98902.09;4937287;29;20044;-70
2021/03/13 03:58:24;;;;;;;15.85;7.18;;;8.20;99.90;;;7.85;92.06;98821.56;4936944;29;20036;-70
2021/03/13 04:00:54;;;;;;;16.52;6.72;;;8.20;99.90;;;8.37;92.38;98882.47;4937321;29;20035;-71
2021/03/13 04:03:22;;;;;;;17.98;7.13;;;8.20;99.90;;;8.36;92.12;98893.06;4937105;29;20208;-70
2021/03/13 04:05:51;;;;;;;16.25;7.25;;;8.20;99.90;;;8.31;92.15;98877.38;4937203;29;20513;-70
2021/03/13 04:08:19;;;;;;;14.30;6.75;;;8.20;99.90;;;8.36;92.49;98867.59;4936988;29;20079;-71
2021/03/13 04:10:50;;;;;;;22.30;7.32;;;8.30;99.90;;;8.29;92.07;98880.94;4936871;29;20044;-71
2021/03/13 04:13:21;;;;;;;13.93;7.13;;;8.20;99.90;;;8.45;91.56;98855.91;4937122;29;20043;-70
2021/03/13 04:15:50;;;;;;;16.98;8.00;;;8.30;99.90;;;8.47;91.45;98862.00;4936964;29;20051;-71
2021/03/13 04:18:20;;;;;;;14.40;7.40;;;8.40;99.90;;;8.47;91.52;98820.75;4936780;29;20044;-70
2021/03/13 04:20:50;;;;;;;17.42;6.90;;;8.30;99.90;;;8.46;91.86;98837.44;4936695;29;20183;-71
2021/03/13 04:23:22;;;;;;;18.23;7.80;;;8.30;99.90;;;8.50;92.27;98818.00;4935855;29;20052;-71
2021/03/13 04:25:52;;;;;;;22.00;7.70;;;8.40;99.90;;;8.48;92.48;98829.50;4936789;29;20055;-72
2021/03/13 04:28:20;;;;;;;20.60;8.02;;;8.40;99.90;;;8.51;92.55;98818.88;4936515;29;20502;-71
2021/03/13 04:30:48;;;;;;;20.70;8.32;;;8.40;99.90;;;8.49;92.54;98808.38;4936584;29;20043;-71
2021/03/13 04:33:18;;;;;;;20.15;7.72;;;8.30;99.90;;;8.53;92.28;98819.69;4936503;29;20052;-70
2021/03/13 04:35:48;;;;;;;16.95;7.13;;;8.40;99.90;;;8.57;92.71;98808.16;4936411;29;20055;-70
2021/03/13 04:38:18;;;;;;;15.57;6.95;;;8.40;99.90;;;8.61;92.68;98786.09;4936299;29;20436;-70
2021/03/13 04:40:46;;;;;;;21.77;7.35;;;8.40;99.90;;;8.60;92.65;98801.03;4936460;29;20131;-70
2021/03/13 04:43:14;;;;;;;19.20;7.78;;;8.50;99.90;;;8.51;92.61;98830.28;4919270;29;20102;-70
2021/03/13 04:45:42;;;;;;;18.80;7.18;;;8.40;99.90;;;8.57;92.85;98792.34;4936146;29;20067;-70
2021/03/13 04:48:12;;;;;;;18.00;7.07;;;8.40;99.90;;;8.62;92.98;98772.84;4936508;29;20040;-70
2021/03/13 04:50:41;;;;;;;16.08;6.05;;;8.40;99.90;;;8.63;92.57;98779.84;4936117;29;20047;-71
2021/03/13 04:53:09;;;;;;;21.05;7.00;;;8.40;99.90;;;8.61;92.70;98757.09;4936249;29;20103;-71
2021/03/13 04:55:36;;;;;;;20.17;7.47;;;8.50;99.90;;;8.54;92.76;98735.34;4936202;29;20122;-70
2021/03/13 04:58:04;;;;;;;20.40;7.32;;;8.40;99.90;;;8.03;92.36;98650.00;4935843;29;20114;-71
2021/03/13 05:00:31;;;;;;;16.00;7.07;;;8.50;99.90;;;8.52;93.01;98744.19;4918934;29;20494;-70
2021/03/13 05:02:59;;;;;;;15.05;7.10;;;8.40;99.90;;;8.56;93.22;98727.38;4935959;29;20449;-70
2021/03/13 05:05:27;;;;;;;18.40;7.80;;;8.40;99.90;;;8.53;93.06;98735.38;4936148;29;20122;-70
2021/03/13 05:07:55;;;;;;;14.32;7.32;;;8.40;99.90;;;8.53;93.46;98722.22;4936035;29;20130;-71
2021/03/13 05:10:22;;;;;;;14.48;6.85;;;8.40;99.90;;;8.44;93.24;98688.28;4935968;29;20048;-71
2021/03/13 05:12:51;;;;;;;19.23;6.85;;;8.40;99.90;;;8.33;93.20;98777.25;4935866;29;20071;-70
2021/03/13 05:15:19;;;;;;;21.15;6.28;;;8.30;99.90;;;8.39;93.93;98762.16;4935760;29;20461;-69
2021/03/13 05:17:47;;;;;;;29.20;7.63;;;8.30;99.90;;;8.34;92.70;98776.34;4935709;29;20502;-70
2021/03/13 05:20:15;;;;;;;32.15;8.05;;;8.20;99.90;;;8.35;92.07;98765.78;4935612;29;20410;-70
2021/03/13 05:22:46;;;;;;;22.33;7.30;;;8.30;99.90;;;8.39;92.04;98793.75;4935773;29;20058;-70
2021/03/13 05:25:16;;;;;;;27.52;7.78;;;8.30;99.90;;;8.39;91.57;98782.34;4915365;29;20094;-70
2021/03/13 05:27:45;;;;;;;41.83;8.40;;;8.30;99.90;;;8.37;90.10;98789.44;4916941;29;20380;-70
2021/03/13 05:30:14;;;;;;;34.75;8.55;;;8.30;99.90;;;8.30;89.43;98780.00;4916492;29;20044;-70
2021/03/13 05:32:41;;;;;;;27.98;7.00;;;8.20;99.90;;;8.21;87.30;98788.97;4916780;29;20080;-71
2021/03/13 05:35:11;;;;;;;28.60;7.18;;;8.20;99.90;;;8.24;83.82;98778.38;4915547;29;20060;-70
2021/03/13 05:37:40;;;;;;;21.17;6.57;;;8.10;99.90;;;8.26;82.23;98786.25;4916530;29;20044;-70
2021/03/13 05:40:10;;;;;;;27.23;7.68;;;8.10;99.90;;;8.32;81.97;98813.28;4916434;29;20045;-71
2021/03/13 05:42:39;;;;;;;24.92;7.50;;;8.20;99.90;;;8.28;82.45;98797.59;4916436;29;20455;-71
2021/03/13 05:45:09;;;;;;;28.08;7.57;;;8.20;99.90;;;7.80;83.03;98748.00;4916630;29;20047;-70
2021/03/13 05:47:38;;;;;;;35.95;7.68;;;8.20;99.90;;;8.34;83.49;98815.88;4916562;29;20095;-71
2021/03/13 05:50:09;;;;;;;29.65;8.10;;;8.20;99.90;;;8.11;82.48;98798.03;4916306;29;20048;-71
2021/03/13 05:52:38;;;;;;;;;;;8.10;99.90;;;8.31;83.12;98829.09;4917324;29;20078;-70
2021/03/13 05:55:08;;;;;;;38.72;8.82;;;8.20;99.90;;;8.16;83.40;98797.03;4915017;29;19930;-71
2021/03/13 05:57:36;;;;;;;31.83;8.77;;;8.20;99.90;;;8.29;82.88;98817.75;4916339;29;20091;-71
2021/03/13 06:00:07;;;;;;;35.00;8.27;;;8.20;99.90;;;8.22;82.07;98832.84;4916463;29;20071;-70
2021/03/13 06:02:40;;;;;;;32.58;8.70;;;8.10;99.90;;;8.24;81.10;98809.97;4916576;29;20032;-72
2021/03/13 06:05:10;;;;;;;26.52;7.93;;;8.10;99.90;;;8.23;80.76;98829.28;4916387;29;20044;-71
2021/03/13 06:07:38;;;;;;;34.53;8.98;;;8.10;99.90;;;8.24;80.77;98820.50;4916163;29;20127;-72
2021/03/13 06:10:08;;;;;;;30.48;9.23;;;8.10;99.90;;;8.16;79.97;98823.34;4916193;29;20395;-72
2021/03/13 06:12:36;;;;;;;27.88;8.40;;;8.10;99.90;;;8.28;80.37;98852.91;4916385;29;20443;-71
2021/03/13 06:15:05;;;;;;;33.80;7.80;;;8.10;99.90;;;8.23;80.00;98833.72;4916154;29;20107;-71
2021/03/13 06:17:55;;;;;;;37.33;7.40;;;8.10;99.90;;;8.28;79.82;98847.63;4916168;29;20418;-73
2021/03/13 06:20:33;;;;;;;32.80;8.60;;;8.10;99.90;;;8.28;80.49;98832.72;4916399;29;20308;-73
2021/03/13 06:23:12;;;;;;;35.40;8.20;;;8.20;99.90;;;8.27;79.98;98849.41;4916554;29;20056;-73
2021/03/13 06:25:41;;;;;;;33.65;8.88;;;8.10;99.90;;;8.30;80.30;98833.53;4924668;29;20513;-72
2021/03/13 06:28:14;;;;;;;37.70;8.23;;;8.10;99.90;;;8.28;80.22;98850.28;4935023;29;20055;-72
2021/03/13 06:30:45;;;;;;;35.00;8.48;;;8.10;99.90;;;8.22;79.44;98843.38;4935165;29;20047;-73
2021/03/13 06:33:22;;;;;;;36.55;9.25;;;8.10;99.90;;;8.27;79.13;98849.41;4935114;29;20438;-73
2021/03/13 06:35:53;;;;;;;39.78;7.80;;;8.10;99.90;;;8.10;78.39;98826.16;4935295;29;20102;-72
2021/03/13 06:38:22;;;;;;;35.58;8.18;;;8.10;99.90;;;8.16;78.41;98841.78;4935051;29;20520;-72
2021/03/13 06:40:52;;;;;;;41.80;8.52;;;8.10;99.90;;;8.13;78.17;98833.94;4934757;29;20059;-73
2021/03/13 06:43:26;;;;;;;36.70;9.00;;;8.10;99.90;;;8.14;77.70;98845.34;4934809;29;20040;-73
2021/03/13 06:46:05;;;;;;;43.97;9.70;;;8.00;99.90;;;8.12;77.44;98857.69;4934906;29;20056;-73
2021/03/13 06:48:40;;;;;;;38.25;8.63;;;8.00;99.90;;;8.11;76.74;98838.38;4938497;29;20040;-73
2021/03/13 06:51:28;;;;;;;43.70;10.02;;;8.00;99.90;;;7.51;75.97;98728.69;4938359;29;20553;-73
2021/03/13 06:54:11;;;;;;;38.20;9.15;;;8.10;99.90;;;8.14;75.66;98851.47;4938758;29;20390;-73
2021/03/13 06:56:42;;;;;;;35.22;8.27;;;8.00;99.90;;;8.16;75.46;98822.47;4938257;29;20048;-73
2021/03/13 06:59:22;;;;;;;42.20;9.68;;;8.00;99.90;;;8.21;75.04;98839.00;4938350;29;20042;-74
2021/03/13 07:02:00;;;;;;;39.83;9.90;;;8.10;99.90;;;8.45;74.59;98829.59;4938068;29;20054;-73
2021/03/13 07:04:33;;;;;;;41.50;9.63;;;8.30;99.90;;;8.71;73.23;98819.16;4938367;29;20119;-73
2021/03/13 07:07:00;;;;;;;43.80;8.68;;;8.50;99.90;;;8.99;72.96;98833.22;4921080;29;20044;-73
2021/03/13 07:09:50;;;;;;;39.67;9.52;;;8.80;99.90;;;9.26;71.43;98820.94;4938013;29;20453;-73
2021/03/13 07:12:26;;;;;;;;;;;9.10;99.90;;;9.31;69.62;98816.38;4938402;29;20123;-73
2021/03/13 07:14:54;;;;;;;38.40;9.02;;;9.20;99.90;;;9.50;69.74;98849.16;4938369;29;20055;-71
2021/03/13 07:17:23;;;;;;;29.45;8.38;;;9.30;99.90;;;9.55;69.31;98823.47;4937959;29;20043;-74
2021/03/13 07:19:51;;;;;;;43.70;10.13;;;9.50;99.90;;;9.68;69.22;98852.06;4937833;29;20044;-73
2021/03/13 07:22:20;;;;;;;42.65;9.00;;;9.60;99.90;;;9.52;69.79;98853.50;4937796;29;20039;-73
2021/03/13 07:24:50;;;;;;;39.92;9.95;;;9.40;99.90;;;9.58;70.68;98863.81;4937329;29;20047;-73
2021/03/13 07:27:21;;;;;;;40.78;9.95;;;9.40;99.90;;;9.52;71.40;98842.94;4937480;29;20067;-73
2021/03/13 07:29:51;;;;;;;38.22;10.60;;;9.40;99.90;;;9.45;71.97;98859.00;4920669;29;20106;-71
2021/03/13 07:32:25;;;;;;;41.73;10.20;;;9.30;99.90;;;9.70;72.36;98857.28;4937742;29;20505;-73
2021/03/13 07:35:03;;;;;;;41.08;10.18;;;9.50;99.90;;;9.47;72.01;98873.88;4937546;29;20287;-71
2021/03/13 07:37:33;;;;;;;45.22;10.55;;;9.40;99.90;;;9.37;72.09;98856.59;4937238;29;20110;-73
2021/03/13 07:40:01;;;;;;;43.50;9.43;;;9.30;99.90;;;9.66;71.17;98874.13;4937536;29;20073;-73
2021/03/13 07:42:28;;;;;;;39.58;10.25;;;9.40;99.90;;;9.70;70.65;98881.91;4937528;29;20497;-74
2021/03/13 07:44:56;;;;;;;47.20;10.65;;;9.50;99.90;;;9.67;70.28;98871.47;4937366;29;20111;-76
2021/03/13 07:47:25;;;;;;;46.13;11.68;;;9.60;99.90;;;9.75;71.88;98889.69;4937251;29;20484;-70
2021/03/13 07:49:53;;;;;;;47.35;11.15;;;9.60;99.90;;;9.53;71.99;98859.59;4919967;29;20104;-74
2021/03/13 07:52:21;;;;;;;39.50;9.93;;;9.50;99.90;;;9.54;73.12;98877.19;4937039;29;20532;-74
2021/03/13 07:54:51;;;;;;;47.03;11.32;;;9.40;99.90;;;9.41;73.05;98883.75;4937194;29;20091;-73
2021/03/13 07:57:20;;;;;;;37.30;9.98;;;9.30;99.90;;;9.42;72.66;98859.97;4936837;29;20048;-73
2021/03/13 07:59:50;;;;;;;33.85;8.40;;;9.40;99.90;;;9.45;71.37;98888.00;4936112;29;20387;-74
2021/03/13 08:02:41;;;;;;;36.35;8.63;;;9.40;99.90;;;9.86;70.12;98895.47;4920007;29;20060;-74
2021/03/13 08:05:14;;;;;;;28.58;8.02;;;9.60;99.90;;;10.25;69.06;98888.00;4937009;29;20039;-78
2021/03/13 08:07:57;;;;;;;29.67;8.88;;;10.00;99.90;;;10.22;66.24;98878.38;4937048;29;20103;-78
2021/03/13 08:10:52;;;;;;;30.60;7.43;;;10.10;99.90;;;10.30;65.97;98886.91;4936925;29;20047;-74
2021/03/13 08:13:49;;;;;;;35.10;9.27;;;10.20;99.90;;;10.35;66.60;98915.81;4936907;29;20414;-79
2021/03/13 08:16:19;;;;;;;35.15;7.40;;;10.20;99.90;;;10.06;66.72;98898.31;4919840;29;20524;-82
2021/03/13 08:18:49;;;;;;;32.03;8.90;;;10.00;99.90;;;9.93;67.50;98899.59;4936856;29;20091;-81
2021/03/13 08:21:44;;;;;;;34.30;8.53;;;9.80;99.90;;;9.58;68.31;98903.41;4936569;29;20501;-70
2021/03/13 08:24:15;;;;;;;45.30;9.10;;;9.60;99.90;;;9.41;69.31;98915.41;4936688;29;20119;-71
2021/03/13 08:27:07;;;;;;;44.15;9.35;;;9.30;99.90;;;9.37;70.47;98912.00;4936551;29;20059;-70
2021/03/13 08:29:56;;;;;;;43.45;10.35;;;9.30;99.90;;;9.34;71.59;98917.38;4919570;29;20052;-72
2021/03/13 08:33:05;;;;;;;42.25;10.05;;;9.20;99.90;;;9.30;72.58;98928.94;4936723;29;20083;-72
2021/03/13 08:35:54;;;;;;;49.28;9.88;;;9.10;99.90;;;9.27;72.14;98925.53;4936431;29;20082;-71
2021/03/13 08:38:53;;;;;;;45.75;11.32;;;9.10;99.90;;;9.09;72.86;98898.81;4936279;29;20051;-71
2021/03/13 08:41:51;;;;;;;43.33;9.65;;;9.10;99.90;;;9.54;72.24;98936.09;4936313;29;20044;-75
2021/03/13 08:44:32;;;;;;;50.67;12.02;;;9.30;99.90;;;9.35;71.75;98905.91;4921367;29;20502;-73
2021/03/13 08:47:03;;;;;;;50.92;10.90;;;9.30;99.90;;;9.57;71.73;98921.94;4936415;29;20106;-71
2021/03/13 08:49:48;;;;;;;42.30;9.63;;;9.40;99.90;;;9.72;70.56;98927.59;4936315;29;20467;-69
2021/03/13 08:52:28;;;;;;;44.83;10.70;;;9.50;99.90;;;10.04;70.11;98924.75;4936081;29;20051;-69
2021/03/13 08:54:57;;;;;;;49.20;9.50;;;9.80;99.90;;;10.23;68.37;98924.16;4936337;29;20047;-71
2021/03/13 08:57:48;;;;;;;50.20;10.35;;;10.10;99.90;;;10.04;68.76;98927.38;4935984;29;20118;-76
2021/03/13 09:00:18;;;;;;;43.80;10.40;;;9.90;99.90;;;10.04;69.12;98931.84;4935767;29;20417;-68
2021/03/13 09:02:50;;;;;;;51.35;10.98;;;9.90;99.90;;;10.07;69.01;98923.78;4935800;29;20085;-69
2021/03/13 09:05:22;;;;;;;42.10;9.82;;;9.90;99.90;;;9.93;68.17;98932.16;4936124;29;20107;-71
2021/03/13 09:07:53;;;;;;;46.10;10.75;;;9.80;99.90;;;9.75;68.16;98916.94;4936072;29;20055;-71
2021/03/13 09:10:21;;;;;;;52.88;10.77;;;9.70;99.90;;;9.92;68.45;98934.88;4935682;29;20139;-71
2021/03/13 09:12:49;;;;;;;41.88;9.52;;;9.80;99.90;;;9.60;68.33;98891.03;4935764;29;20036;-71
2021/03/13 09:15:17;;;;;;;44.55;10.25;;;9.70;99.90;;;9.95;68.26;98916.28;4935674;29;20176;-70
2021/03/13 09:17:45;;;;;;;39.60;9.45;;;9.80;99.90;;;10.22;67.12;98881.03;4935871;29;20062;-71
2021/03/13 09:20:16;;;;;;;50.65;10.75;;;10.00;99.90;;;10.48;67.36;98936.47;4918631;29;20047;-71
2021/03/13 09:22:46;;;;;;;36.55;9.35;;;10.20;99.90;;;9.64;66.26;98797.66;4918740;29;20055;-70
2021/03/13 09:25:17;;;;;;;34.40;9.43;;;10.20;99.90;;;10.21;65.91;98928.63;4935456;29;20067;-71
2021/03/13 09:27:45;;;;;;;38.45;9.60;;;10.10;99.90;;;10.14;65.90;98932.41;4935701;29;20039;-71
2021/03/13 09:30:18;;;;;;;38.50;8.88;;;10.00;99.90;;;10.18;65.81;98926.94;4935426;29;20040;-71
2021/03/13 09:32:48;;;;;;;39.03;9.48;;;10.00;99.90;;;10.22;65.16;98951.50;4935600;29;20075;-71
2021/03/13 09:35:18;;;;;;;37.47;9.02;;;10.00;99.90;;;10.08;64.55;98945.78;4935898;29;20446;-71
2021/03/13 09:37:46;;;;;;;31.92;8.65;;;10.00;99.90;;;10.20;64.72;98953.34;4935449;29;20133;-71
2021/03/13 09:40:17;;;;;;;33.85;8.80;;;10.10;99.90;;;10.36;65.11;98954.53;4935448;29;20557;-70
2021/03/13 09:42:46;;;;;;;30.40;8.57;;;10.20;99.90;;;10.26;64.00;98958.44;4935645;29;20072;-70
2021/03/13 09:45:16;;;;;;;37.30;9.20;;;10.20;99.90;;;10.52;64.48;98953.97;4935438;29;20052;-70
2021/03/13 09:47:46;;;;;;;38.38;10.45;;;10.30;99.90;;;10.90;64.59;98949.94;4935452;29;20103;-71
2021/03/13 09:50:16;;;;;;;45.47;10.20;;;10.60;99.90;;;11.06;64.07;98963.47;4935598;29;20443;-71
2021/03/13 09:52:46;;;;;;;41.03;9.30;;;10.90;99.90;;;11.18;63.53;98971.81;4935257;29;20350;-71
2021/03/13 09:55:16;;;;;;;36.07;8.43;;;11.00;99.90;;;11.20;62.68;98922.34;4935472;29;20051;-71
2021/03/13 09:57:45;;;;;;;36.08;7.78;;;11.10;99.90;;;11.13;62.30;98959.69;4935427;29;20047;-71
2021/03/13 10:00:19;;;;;;;30.92;8.23;;;11.00;99.90;;;10.63;62.16;98912.16;4935288;29;20116;-71
2021/03/13 10:02:48;;;;;;;33.63;8.40;;;10.80;99.90;;;10.61;63.17;98944.81;4918080;29;20529;-70
2021/03/13 10:05:17;;;;;;;33.30;8.75;;;10.60;99.90;;;10.86;62.77;98950.97;4934953;29;20107;-71
2021/03/13 10:07:47;;;;;;;30.23;8.25;;;10.70;99.90;;;10.94;62.87;98948.91;4918502;29;20051;-71
2021/03/13 10:10:17;;;;;;;44.13;9.23;;;10.80;99.90;;;10.93;63.72;98960.41;4918024;29;20044;-71
2021/03/13 10:12:48;;;;;;;31.55;7.78;;;10.80;99.90;;;10.87;62.83;98894.53;4918001;29;20052;-71
2021/03/13 10:15:20;;;;;;;34.53;7.63;;;10.90;99.90;;;10.97;63.66;98969.97;4918321;29;20066;-71
2021/03/13 10:17:57;;;;;;;31.55;9.10;;;10.90;99.90;;;10.62;62.81;98928.06;4935320;29;20410;-70
2021/03/13 10:20:27;;;;;;;31.38;8.15;;;10.60;99.90;;;10.69;64.16;98950.72;4935204;29;20040;-70
2021/03/13 10:22:56;;;;;;;27.77;7.47;;;10.50;99.90;;;10.84;63.04;98899.91;4938110;29;20051;-70
2021/03/13 10:25:24;;;;;;;26.92;8.30;;;10.70;99.90;;;10.66;63.17;98946.41;4938653;29;20074;-70
2021/03/13 10:27:52;;;;;;;26.50;7.28;;;10.60;99.90;;;10.45;63.52;98935.72;4938701;29;20071;-70
2021/03/13 10:30:26;;;;;;;31.70;9.32;;;10.40;99.90;;;10.25;64.04;98960.19;4938594;29;20039;-70
2021/03/13 10:32:54;;;;;;;30.27;8.35;;;10.20;99.90;;;10.27;64.76;98968.06;4938940;29;20181;-70
2021/03/13 10:35:26;;;;;;;38.55;8.93;;;10.10;99.90;;;10.45;64.80;98973.56;4938520;29;20047;-70
2021/03/13 10:37:57;;;;;;;36.58;8.73;;;10.30;99.90;;;10.30;64.71;98957.41;4921529;29;20338;-70
2021/03/13 10:40:41;;;;;;;36.20;8.57;;;10.20;99.90;;;10.17;64.96;98969.28;4938677;29;20095;-70
2021/03/13 10:43:30;;;;;;;36.38;8.70;;;10.00;99.90;;;10.26;65.41;98976.91;4938675;29;20052;-70